Cerro Azul, Brazil
Current Conditions -  °F | °C
As of 4:00 PM on Wednesday 26 Nov 2014 (Local Time) from SBBI Reporting Station
Broken Clouds Broken Clouds  
Wind Chill: 77°   Ceiling: 3000
Heat Index: 79°   Visibility: 6mi
Dew Point: 63°   Wind: 5mph
Humidity: 61%   Direction: 230°SW
Pressure: 29.85"   Gusts: NA
Location:  24.82°S, 49.26°W
Report Text: SBBI 261800Z 23004KT 9999 BKN030 25/17 Q1011
Loading
Personal Weather Stations






























Interactive Weather Map New forecast layout! Learn more

10-Day Weather Forecast

Advertisements
Track Severe Weather on mobile